createdAt,value
2023-03-02T00:01:51.528Z,4.60
2023-03-02T00:04:24.642Z,4.40
2023-03-02T00:06:56.183Z,4.70
2023-03-02T00:09:29.570Z,5.20
2023-03-02T00:12:01.846Z,4.80
2023-03-02T00:16:59.863Z,4.20
2023-03-02T00:19:28.275Z,3.60
2023-03-02T00:21:57.929Z,5.10
2023-03-02T00:24:30.153Z,4.20
2023-03-02T00:26:59.875Z,5.10
2023-03-02T00:32:21.522Z,5.40
2023-03-02T00:34:56.094Z,5.90
2023-03-02T00:37:35.068Z,26.10
2023-03-02T00:40:30.096Z,6.10
2023-03-02T00:42:59.932Z,7.00
2023-03-02T00:45:33.169Z,8.90
2023-03-02T00:48:01.375Z,9.60
2023-03-02T00:50:30.732Z,11.50
2023-03-02T00:52:59.164Z,12.50
2023-03-02T00:55:31.323Z,11.60
2023-03-02T00:58:04.313Z,13.20
2023-03-02T01:00:44.783Z,14.20
2023-03-02T01:03:14.439Z,13.90
2023-03-02T01:05:49.121Z,13.90
2023-03-02T01:08:18.813Z,14.10
2023-03-02T01:10:49.668Z,13.50
2023-03-02T01:13:17.911Z,13.00
2023-03-02T01:15:46.335Z,13.90
2023-03-02T01:18:25.135Z,13.00
2023-03-02T01:21:02.911Z,12.90
2023-03-02T01:23:32.425Z,11.40
2023-03-02T01:26:03.795Z,13.00
2023-03-02T01:28:32.039Z,14.30
2023-03-02T01:31:01.342Z,14.40
2023-03-02T01:33:29.969Z,14.10
2023-03-02T01:35:59.352Z,14.30
2023-03-02T01:38:27.889Z,13.80
2023-03-02T01:47:19.222Z,9.60
2023-03-02T01:49:52.165Z,8.50
2023-03-02T01:52:24.023Z,7.60
2023-03-02T01:54:54.516Z,8.20
2023-03-02T01:57:27.190Z,6.30
2023-03-02T02:00:08.432Z,7.00
2023-03-02T02:02:42.084Z,7.10
2023-03-02T02:05:15.067Z,6.90
2023-03-02T02:07:47.504Z,7.70
2023-03-02T02:10:21.149Z,8.20
2023-03-02T02:12:53.052Z,8.20
2023-03-02T02:15:21.504Z,7.90
2023-03-02T02:17:54.545Z,8.70
2023-03-02T02:20:31.893Z,10.20
2023-03-02T02:23:11.217Z,9.50
2023-03-02T02:25:55.513Z,10.40
2023-03-02T02:28:37.525Z,10.30
2023-03-02T02:31:14.279Z,10.40
2023-03-02T02:33:45.877Z,12.60
2023-03-02T02:36:22.307Z,12.20
2023-03-02T02:38:53.621Z,14.10
2023-03-02T02:41:28.524Z,34.10
2023-03-02T02:44:05.551Z,15.50
2023-03-02T02:46:34.864Z,18.00
2023-03-02T02:49:04.991Z,18.00
2023-03-02T02:51:34.596Z,19.40
2023-03-02T02:54:05.026Z,21.90
2023-03-02T02:56:37.890Z,20.60
2023-03-02T02:59:09.000Z,22.30
2023-03-02T03:01:37.433Z,21.70
2023-03-02T03:04:07.426Z,24.50
2023-03-02T03:06:42.684Z,23.20
2023-03-02T03:09:14.068Z,22.40
2023-03-02T03:11:47.633Z,22.10
2023-03-02T03:14:18.692Z,22.00
2023-03-02T03:16:50.149Z,20.80
2023-03-02T03:19:23.735Z,22.80
2023-03-02T03:21:55.297Z,22.30
2023-03-02T03:24:27.559Z,23.10
2023-03-02T03:26:57.990Z,24.60
2023-03-02T03:29:30.656Z,23.50
2023-03-02T03:32:00.564Z,22.90
2023-03-02T03:34:33.883Z,22.50
2023-03-02T03:43:30.530Z,22.50
2023-03-02T03:46:00.408Z,22.80
2023-03-02T03:48:29.763Z,21.70
2023-03-02T03:51:00.532Z,20.20
2023-03-02T03:53:29.282Z,20.50
2023-03-02T03:55:58.001Z,19.00
2023-03-02T03:58:28.033Z,19.00
2023-03-02T04:00:59.538Z,19.40
2023-03-02T04:03:30.224Z,19.80
2023-03-02T04:05:58.631Z,19.80
2023-03-02T04:08:26.955Z,20.70
2023-03-02T04:10:56.460Z,19.00
2023-03-02T04:13:26.842Z,18.70
2023-03-02T04:15:56.486Z,19.90
2023-03-02T04:18:31.092Z,20.00
2023-03-02T04:21:00.379Z,20.40
2023-03-02T04:23:28.759Z,19.50
2023-03-02T04:25:58.094Z,19.50
2023-03-02T04:28:27.498Z,20.30
2023-03-02T04:30:57.130Z,19.60
2023-03-02T04:33:27.847Z,20.80
2023-03-02T04:35:56.129Z,20.90
2023-03-02T04:38:29.836Z,20.90
2023-03-02T04:41:00.776Z,20.40
2023-03-02T04:43:29.437Z,21.80
2023-03-02T04:46:00.653Z,21.00
2023-03-02T04:51:59.025Z,20.60
2023-03-02T04:54:32.711Z,22.00
2023-03-02T04:58:15.580Z,20.50
2023-03-02T05:00:52.225Z,20.90
2023-03-02T05:03:23.155Z,20.50
2023-03-02T05:06:13.628Z,19.70
2023-03-02T05:08:46.514Z,18.30
2023-03-02T05:11:22.011Z,20.10
2023-03-02T05:13:51.426Z,19.70
2023-03-02T05:16:20.363Z,20.20
2023-03-02T05:18:49.882Z,19.90
2023-03-02T05:21:20.166Z,19.00
2023-03-02T05:23:51.084Z,19.80
2023-03-02T05:26:20.868Z,21.10
2023-03-02T05:28:54.027Z,20.00
2023-03-02T05:31:25.570Z,20.50
2023-03-02T05:33:58.441Z,20.20
2023-03-02T05:38:58.362Z,22.60
2023-03-02T05:41:27.089Z,22.20
2023-03-02T05:43:55.762Z,21.80
2023-03-02T05:46:25.434Z,21.70
2023-03-02T05:48:54.175Z,20.40
2023-03-02T05:51:23.233Z,20.10
2023-03-02T05:53:53.601Z,19.30
2023-03-02T05:56:23.343Z,22.60
2023-03-02T05:58:51.563Z,23.60
2023-03-02T06:01:23.397Z,21.20
2023-03-02T06:03:52.677Z,21.00
2023-03-02T06:06:21.141Z,21.10
2023-03-02T06:08:49.439Z,22.00
2023-03-02T06:11:17.710Z,22.70
2023-03-02T06:14:47.505Z,23.10
2023-03-02T06:17:37.255Z,25.60
2023-03-02T06:20:11.453Z,25.10
2023-03-02T06:22:42.684Z,26.80
2023-03-02T06:25:12.184Z,24.70
2023-03-02T06:27:41.742Z,25.10
2023-03-02T06:30:36.633Z,27.60
2023-03-02T06:36:44.285Z,23.50
2023-03-02T06:39:39.426Z,21.40
2023-03-02T06:45:12.706Z,20.60
2023-03-02T06:47:58.160Z,20.60
2023-03-02T07:09:42.902Z,14.30
2023-03-02T07:12:11.661Z,14.30
2023-03-02T07:14:42.601Z,10.60
2023-03-02T07:17:12.523Z,10.30
2023-03-02T07:19:41.063Z,8.00
2023-03-02T07:22:10.684Z,7.50
2023-03-02T07:24:40.644Z,7.30
2023-03-02T07:27:13.163Z,6.00
2023-03-02T07:29:41.506Z,1.00
2023-03-02T07:32:12.628Z,1.00
2023-03-02T07:34:41.601Z,1.00
2023-03-02T07:37:09.870Z,1.00
2023-03-02T07:39:39.223Z,1.00
2023-03-02T07:42:15.198Z,1.00
2023-03-02T07:44:45.580Z,1.00
2023-03-02T07:47:15.324Z,1.00
2023-03-02T07:49:44.959Z,1.00
2023-03-02T07:52:22.733Z,1.00
2023-03-02T07:54:51.717Z,1.00
2023-03-02T07:57:23.709Z,1.00
2023-03-02T07:59:54.149Z,1.00
2023-03-02T08:02:27.987Z,1.00
2023-03-02T08:04:56.403Z,1.00
2023-03-02T08:07:24.887Z,1.00
2023-03-02T08:09:56.818Z,1.00
2023-03-02T08:12:32.725Z,1.00
2023-03-02T08:15:06.136Z,1.00
2023-03-02T08:17:34.549Z,1.00
2023-03-02T08:20:08.327Z,1.00
2023-03-02T08:22:38.010Z,1.00
2023-03-02T08:25:07.384Z,1.00
2023-03-02T08:27:40.867Z,1.00
2023-03-02T08:30:18.992Z,1.00
2023-03-02T08:32:47.339Z,1.00
2023-03-02T08:35:15.595Z,1.00
2023-03-02T08:37:48.893Z,1.00
2023-03-02T08:40:18.162Z,1.00
2023-03-02T08:42:48.327Z,1.00
2023-03-02T08:45:16.736Z,1.00
2023-03-02T08:47:45.041Z,1.00
2023-03-02T08:50:17.843Z,1.00
2023-03-02T08:52:46.078Z,1.00
2023-03-02T08:55:18.630Z,1.00
2023-03-02T08:57:49.132Z,1.00
2023-03-02T09:03:38.876Z,1.00
2023-03-02T09:06:07.481Z,1.00
2023-03-02T09:09:04.946Z,1.00
2023-03-02T09:11:41.308Z,1.00
2023-03-02T09:14:26.899Z,1.00
2023-03-02T09:17:18.410Z,1.00
2023-03-02T09:19:52.020Z,1.00
2023-03-02T09:22:24.538Z,1.00
2023-03-02T09:24:59.176Z,1.00
2023-03-02T09:27:29.227Z,1.00
2023-03-02T09:30:08.719Z,1.00
2023-03-02T09:32:46.217Z,1.00
2023-03-02T09:38:36.784Z,1.00
2023-03-02T09:41:43.822Z,1.00
2023-03-02T09:44:11.396Z,1.00
2023-03-02T09:46:47.799Z,1.00
2023-03-02T09:49:29.316Z,1.00
2023-03-02T09:52:11.696Z,1.00
2023-03-02T09:54:41.721Z,1.00
2023-03-02T09:57:22.214Z,1.00
2023-03-02T10:00:04.029Z,1.00
2023-03-02T10:02:49.428Z,1.00
2023-03-02T10:05:21.739Z,1.00
2023-03-02T10:07:54.669Z,1.00
2023-03-02T10:10:41.894Z,1.00
2023-03-02T10:13:21.126Z,1.00
2023-03-02T10:16:12.097Z,1.00
2023-03-02T10:25:58.041Z,1.00
2023-03-02T10:28:30.898Z,1.00
2023-03-02T10:31:14.061Z,1.00
2023-03-02T10:37:45.132Z,1.00
2023-03-02T10:44:08.782Z,1.00
2023-03-02T10:50:40.003Z,1.00
2023-03-02T10:53:18.788Z,1.00
2023-03-02T10:55:51.600Z,1.00
2023-03-02T11:01:25.911Z,1.00
2023-03-02T11:03:58.614Z,1.00
2023-03-02T11:09:23.279Z,1.00
2023-03-02T11:11:59.831Z,1.00
2023-03-02T11:14:38.296Z,1.00
2023-03-02T11:17:36.608Z,1.00
2023-03-02T11:23:25.088Z,1.00
2023-03-02T11:25:59.736Z,1.00
2023-03-02T11:28:48.754Z,1.00
2023-03-02T11:31:35.395Z,1.00
2023-03-02T11:34:57.780Z,1.00
2023-03-02T11:44:42.538Z,1.00
2023-03-02T11:47:22.100Z,1.00
2023-03-02T11:49:56.326Z,1.00
2023-03-02T11:52:30.153Z,1.00
2023-03-02T11:55:08.517Z,1.00
2023-03-02T12:08:49.001Z,1.00
2023-03-02T12:14:50.000Z,1.00
2023-03-02T12:17:32.283Z,1.00
2023-03-02T12:20:27.611Z,1.00
2023-03-02T12:23:07.855Z,1.00
2023-03-02T12:25:52.883Z,1.00
2023-03-02T12:34:59.928Z,1.00
2023-03-02T12:44:38.771Z,1.00
2023-03-02T12:47:16.264Z,1.00
2023-03-02T12:49:50.459Z,1.00
2023-03-02T12:52:33.685Z,1.00
2023-03-02T12:55:41.865Z,1.00
2023-03-02T12:58:30.320Z,1.00
2023-03-02T13:01:06.543Z,1.00
2023-03-02T13:03:46.286Z,1.00
2023-03-02T13:06:19.565Z,1.00
2023-03-02T13:08:52.295Z,1.00
2023-03-02T13:11:39.940Z,1.00
2023-03-02T13:14:27.128Z,1.00
2023-03-02T13:16:59.053Z,1.00
2023-03-02T13:22:43.504Z,1.00
2023-03-02T13:28:45.934Z,1.00
2023-03-02T13:37:48.515Z,1.00
2023-03-02T13:40:44.983Z,1.00
2023-03-02T13:43:28.758Z,1.00
2023-03-02T13:46:07.735Z,1.00
2023-03-02T13:48:40.086Z,1.00
2023-03-02T13:51:17.845Z,1.00
2023-03-02T13:53:52.774Z,1.00
2023-03-02T13:56:38.183Z,1.00
2023-03-02T13:59:15.030Z,1.00
2023-03-02T14:01:57.809Z,1.00
2023-03-02T14:04:26.471Z,1.00
2023-03-02T14:06:59.716Z,1.00
2023-03-02T14:09:33.194Z,1.00
2023-03-02T14:12:01.592Z,1.00
2023-03-02T14:14:32.625Z,1.00
2023-03-02T14:17:10.309Z,1.00
2023-03-02T14:26:01.641Z,1.00
2023-03-02T14:28:36.623Z,1.00
2023-03-02T14:31:04.919Z,1.00
2023-03-02T14:33:33.283Z,1.00
2023-03-02T14:36:14.802Z,1.00
2023-03-02T14:38:49.912Z,1.00
2023-03-02T14:44:40.678Z,1.00
2023-03-02T14:47:19.085Z,1.00
2023-03-02T14:50:06.840Z,1.00
2023-03-02T14:53:14.433Z,1.00
2023-03-02T14:55:56.055Z,1.00
2023-03-02T14:58:31.734Z,1.00
2023-03-02T15:01:02.147Z,1.00
2023-03-02T15:10:28.461Z,1.00
2023-03-02T15:12:58.664Z,1.00
2023-03-02T15:15:27.409Z,1.00
2023-03-02T15:24:27.877Z,1.00
2023-03-02T15:27:06.263Z,1.00
2023-03-02T15:29:38.945Z,1.00
2023-03-02T15:32:35.366Z,1.00
2023-03-02T15:35:10.169Z,1.00
2023-03-02T15:38:05.722Z,1.00
2023-03-02T15:40:34.580Z,1.00
2023-03-02T15:43:03.697Z,1.00
2023-03-02T15:45:37.253Z,1.00
2023-03-02T15:48:17.263Z,1.00
2023-03-02T15:51:17.193Z,1.00
2023-03-02T15:53:51.960Z,1.00
2023-03-02T15:59:44.891Z,1.00
2023-03-02T16:02:15.268Z,1.00
2023-03-02T16:04:45.284Z,1.00
2023-03-02T16:10:50.727Z,1.00
2023-03-02T16:13:30.541Z,1.00
2023-03-02T16:16:01.576Z,1.00
2023-03-02T16:18:33.528Z,1.00
2023-03-02T16:21:02.620Z,1.00
2023-03-02T16:24:13.171Z,1.00
2023-03-02T16:33:24.025Z,1.00
2023-03-02T16:36:01.225Z,1.00
2023-03-02T16:38:40.501Z,1.00
2023-03-02T16:41:47.241Z,1.00
2023-03-02T16:44:38.988Z,1.00
2023-03-02T16:47:18.444Z,1.00
2023-03-02T16:49:47.886Z,1.00
2023-03-02T16:52:27.906Z,1.00
2023-03-02T16:55:13.119Z,1.00
2023-03-02T17:04:02.785Z,1.00
2023-03-02T17:06:32.541Z,1.00
2023-03-02T17:12:45.751Z,1.00
2023-03-02T17:15:19.689Z,1.00
2023-03-02T17:17:52.568Z,1.00
2023-03-02T17:20:22.972Z,1.00
2023-03-02T17:22:55.486Z,1.00
2023-03-02T17:35:27.809Z,1.00
2023-03-02T17:37:57.127Z,1.00
2023-03-02T17:40:36.204Z,1.00
2023-03-02T17:43:25.772Z,1.00
2023-03-02T17:49:31.225Z,1.00
2023-03-02T17:52:02.692Z,1.00
2023-03-02T17:54:34.855Z,1.00
2023-03-02T17:57:38.340Z,1.00
2023-03-02T18:00:16.055Z,1.00
2023-03-02T18:02:45.898Z,1.00
2023-03-02T18:05:15.756Z,1.00
2023-03-02T18:07:45.332Z,1.00
2023-03-02T18:10:18.777Z,1.00
2023-03-02T18:12:48.685Z,1.00
2023-03-02T18:15:23.143Z,1.00
2023-03-02T18:17:52.801Z,1.00
2023-03-02T18:20:22.820Z,1.00
2023-03-02T18:22:51.133Z,1.00
2023-03-02T18:31:11.483Z,1.00
2023-03-02T18:40:22.266Z,1.00
2023-03-02T18:42:50.544Z,1.00
2023-03-02T18:45:23.293Z,1.00
2023-03-02T18:48:08.810Z,1.00
2023-03-02T18:50:39.622Z,1.00
2023-03-02T18:53:12.869Z,1.00
2023-03-02T18:55:43.812Z,1.00
2023-03-02T19:05:10.582Z,1.00
2023-03-02T19:07:39.335Z,1.00
2023-03-02T19:10:08.422Z,1.00
2023-03-02T19:13:02.389Z,1.00
2023-03-02T19:15:37.612Z,1.00
2023-03-02T19:18:06.231Z,1.00
2023-03-02T19:20:34.800Z,1.00
2023-03-02T19:23:03.205Z,1.00
2023-03-02T19:25:32.960Z,1.00
2023-03-02T19:28:09.600Z,1.00
2023-03-02T19:30:38.152Z,1.00
2023-03-02T19:39:19.829Z,1.00
2023-03-02T19:41:49.974Z,1.00
2023-03-02T19:44:25.321Z,1.00
2023-03-02T19:46:53.892Z,1.00
2023-03-02T19:49:22.205Z,1.00
2023-03-02T19:51:51.699Z,1.00
2023-03-02T19:54:20.161Z,1.00
2023-03-02T19:56:53.406Z,1.00
2023-03-02T19:59:24.131Z,1.00
2023-03-02T20:01:58.770Z,1.00
2023-03-02T20:04:41.730Z,1.00
2023-03-02T20:10:29.757Z,1.00
2023-03-02T20:13:01.769Z,1.00
2023-03-02T20:15:48.338Z,1.00
2023-03-02T20:18:20.813Z,1.00
2023-03-02T20:20:49.390Z,1.00
2023-03-02T20:23:17.852Z,1.00
2023-03-02T20:28:14.660Z,1.00
2023-03-02T20:30:51.470Z,1.00
2023-03-02T20:33:21.182Z,1.00
2023-03-02T20:35:49.578Z,1.00
2023-03-02T20:38:24.175Z,1.00
2023-03-02T20:40:52.624Z,1.00
2023-03-02T20:43:25.004Z,1.00
2023-03-02T20:45:55.158Z,1.00
2023-03-02T20:48:23.864Z,7.30
2023-03-02T20:50:54.282Z,8.20
2023-03-02T20:53:23.940Z,7.50
2023-03-02T20:55:52.217Z,14.90
2023-03-02T20:58:21.888Z,19.00
2023-03-02T21:00:50.118Z,22.30
2023-03-02T21:03:24.234Z,26.20
2023-03-02T21:05:53.991Z,26.90
2023-03-02T21:08:22.344Z,27.50
2023-03-02T21:10:50.789Z,25.40
2023-03-02T21:13:22.022Z,25.40
2023-03-02T21:15:53.933Z,24.90
2023-03-02T21:18:24.196Z,23.80
2023-03-02T21:20:55.995Z,24.60
2023-03-02T21:23:24.505Z,28.70
2023-03-02T21:25:55.283Z,29.80
2023-03-02T21:28:25.120Z,33.90
2023-03-02T21:30:53.628Z,37.90
2023-03-02T21:33:23.309Z,39.50
2023-03-02T21:35:51.754Z,43.50
2023-03-02T21:38:20.595Z,46.50
2023-03-02T21:40:48.934Z,49.90
2023-03-02T21:43:17.843Z,52.30
2023-03-02T21:45:46.194Z,56.10
2023-03-02T21:48:20.732Z,62.30
2023-03-02T21:50:51.936Z,68.20
2023-03-02T21:53:20.279Z,74.70
2023-03-02T21:55:53.575Z,77.80
2023-03-02T21:58:22.397Z,84.30
2023-03-02T22:00:50.663Z,76.80
2023-03-02T22:03:18.828Z,76.00
2023-03-02T22:05:48.309Z,82.40
2023-03-02T22:08:20.676Z,86.00
2023-03-02T22:10:54.396Z,94.90
2023-03-02T22:13:24.718Z,90.80
2023-03-02T22:15:59.414Z,92.60
2023-03-02T22:18:28.080Z,94.70
2023-03-02T22:20:58.948Z,96.50
2023-03-02T22:23:29.153Z,99.40
2023-03-02T22:26:17.664Z,98.30
2023-03-02T22:28:47.154Z,99.90
2023-03-02T22:31:20.968Z,99.90
2023-03-02T22:33:51.245Z,99.90
2023-03-02T22:36:23.405Z,99.90
2023-03-02T22:38:54.133Z,99.90
2023-03-02T22:41:22.790Z,99.90
2023-03-02T22:43:52.900Z,99.90
2023-03-02T22:46:27.081Z,99.90
2023-03-02T22:48:55.816Z,99.90
2023-03-02T22:51:25.663Z,99.90
2023-03-02T22:54:00.759Z,99.90
2023-03-02T22:56:31.656Z,99.90
2023-03-02T22:59:03.987Z,99.90
2023-03-02T23:01:40.143Z,99.90
2023-03-02T23:04:18.454Z,99.90
2023-03-02T23:06:49.874Z,99.90
2023-03-02T23:09:24.856Z,99.90
2023-03-02T23:11:58.724Z,99.90
2023-03-02T23:14:31.132Z,99.90
2023-03-02T23:17:04.128Z,99.90
2023-03-02T23:19:33.147Z,99.90
2023-03-02T23:22:02.395Z,99.90
2023-03-02T23:24:32.281Z,99.90
2023-03-02T23:27:00.586Z,99.90
2023-03-02T23:29:32.498Z,99.90
2023-03-02T23:32:03.280Z,99.90
2023-03-02T23:34:31.695Z,99.90
2023-03-02T23:37:01.464Z,99.90
2023-03-02T23:39:31.110Z,99.90
2023-03-02T23:42:00.784Z,99.90
2023-03-02T23:44:29.051Z,99.90
2023-03-02T23:46:57.229Z,99.90
2023-03-02T23:49:25.546Z,99.90
2023-03-02T23:51:53.847Z,99.90
2023-03-02T23:58:23.494Z,99.90
